Stations météo

réclame
Mon MeteoGroup
Vejer De La Frontera, Espagne (8457): Température de l'air & dewpoint: 12.01.2020 00:00:00 - 18.01.2020 00:00:00 (CET)Vejer De La Frontera, Espagne (8457): Vitesse du vent & gusts: 12.01.2020 00:00:00 - 18.01.2020 00:00:00 (CET)Vejer De La Frontera, Espagne (8457): Direction du vent: 12.01.2020 00:00:00 - 18.01.2020 00:00:00 (CET)Vejer De La Frontera, Espagne (8457): reduced air pressure: 12.01.2020 00:00:00 - 18.01.2020 00:00:00 (CET)Vejer De La Frontera, Espagne (8457): Quantités de précipitations: 12.01.2020 00:00:00 - 18.01.2020 00:00:00 (CET)
Date & Time tt [°C] td [°C] ff [km/h] ff [knt] fx [km/h] fx [knt] dd ppp [hPa] rr [mm]
18.01.2020 00:00:00 - - - - - - - - -
17.01.2020 23:00:00 13,3 11,7 0 0 10 6 NE 1032,9 0,0
17.01.2020 22:00:00 14,0 12,4 7 4 11 6 W 1033,1 0,0
17.01.2020 21:00:00 13,5 11,7 4 2 9 5 W 1032,8 0,0
17.01.2020 20:00:00 13,8 11,4 6 3 12 7 W 1032,6 0,0
17.01.2020 19:00:00 14,4 11,6 8 4 12 7 W 1032,0 -
17.01.2020 18:00:00 15,6 11,8 5 3 15 8 WSW 1031,6 0,0
17.01.2020 17:00:00 15,4 11,2 7 4 15 8 WSW 1031,5 0,0
17.01.2020 16:00:00 16,3 12,1 8 4 15 8 SW 1031,4 0,0
17.01.2020 15:00:00 17,3 12,2 9 5 20 11 SW 1031,6 0,0
17.01.2020 14:00:00 17,4 12,5 11 6 20 11 WSW 1032,3 0,0
17.01.2020 13:00:00 17,1 12,6 6 4 15 8 SW 1033,0 -
17.01.2020 12:00:00 15,7 12,4 9 5 19 10 SW 1033,7 0,0
17.01.2020 11:00:00 14,9 11,9 8 4 18 10 SSW 1033,8 0,0
17.01.2020 10:00:00 13,9 11,6 7 4 15 8 SSW 1033,1 0,0
17.01.2020 09:00:00 13,0 10,5 6 3 13 7 SSW 1032,6 0,0
17.01.2020 08:00:00 12,5 9,7 6 3 15 8 SSW 1032,4 0,0
17.01.2020 07:00:00 12,9 8,9 7 4 16 8 SSW 1031,5 -
17.01.2020 06:00:00 13,2 8,3 8 4 16 9 S 1031,1 0,0
17.01.2020 05:00:00 12,5 10,2 9 5 15 8 SSE 1030,7 0,0
17.01.2020 04:00:00 12,7 10,4 9 5 15 8 S 1031,0 0,0
17.01.2020 03:00:00 12,5 10,9 5 3 11 6 S 1031,0 0,0
17.01.2020 02:00:00 12,6 10,9 4 2 10 6 S 1031,2 0,0
17.01.2020 01:00:00 13,1 10,8 4 2 7 4 S 1031,4 -
17.01.2020 00:00:00 13,2 10,8 4 2 9 5 S 1031,1 0,0
16.01.2020 23:00:00 13,1 10,0 4 2 9 5 SSW 1030,7 0,0
16.01.2020 22:00:00 13,3 9,9 7 4 13 7 WSW 1030,7 0,0
16.01.2020 21:00:00 13,3 9,7 7 4 14 8 WSW 1030,2 0,0
16.01.2020 20:00:00 13,5 9,2 9 5 14 8 WSW 1029,6 0,0
16.01.2020 19:00:00 14,3 9,3 8 4 20 11 WSW 1029,0 -
16.01.2020 18:00:00 15,2 7,3 8 4 15 8 WSW 1028,5 0,0
16.01.2020 17:00:00 17,2 10,3 9 5 19 10 S 1028,1 0,0
16.01.2020 16:00:00 18,1 9,4 10 5 19 10 SSW 1027,8 0,0
16.01.2020 15:00:00 18,9 8,3 8 5 19 11 S 1027,9 0,0
16.01.2020 14:00:00 19,2 7,3 9 5 22 12 SSE 1028,1 0,0
16.01.2020 13:00:00 18,8 6,5 6 3 16 8 ESE 1028,5 -
16.01.2020 12:00:00 16,3 7,7 5 3 12 6 E 1029,0 0,0
16.01.2020 11:00:00 13,9 7,1 5 3 12 7 E 1029,4 0,0
16.01.2020 10:00:00 12,1 7,8 6 3 11 6 E 1028,8 0,0
16.01.2020 09:00:00 10,7 7,4 7 4 12 7 E 1028,3 0,0
16.01.2020 08:00:00 10,2 7,6 5 3 12 7 ENE 1028,2 0,0
16.01.2020 07:00:00 11,3 5,6 6 3 9 5 ENE 1027,6 -
16.01.2020 06:00:00 11,7 3,4 5 3 11 6 ENE 1027,2 0,0
16.01.2020 05:00:00 12,5 2,9 5 3 9 5 ENE 1027,4 0,0
16.01.2020 04:00:00 13,3 1,7 4 2 8 4 E 1027,5 0,0
16.01.2020 03:00:00 13,0 1,9 4 2 8 5 ENE 1027,7 0,0
16.01.2020 02:00:00 11,9 1,9 4 2 7 4 ENE 1028,2 0,0
16.01.2020 01:00:00 12,5 3,9 3 1 7 4 ENE 1028,1 -
16.01.2020 00:00:00 13,5 4,3 0 0 4 2 WSW 1028,3 0,0
15.01.2020 23:00:00 13,4 6,5 3 2 6 3 E 1028,4 0,0
15.01.2020 22:00:00 13,3 8,4 2 1 6 3 ENE 1028,1 0,0
15.01.2020 21:00:00 13,5 8,5 2 1 5 3 ENE 1028,2 0,0
15.01.2020 20:00:00 13,7 7,7 2 1 8 4 E 1028,2 0,0
15.01.2020 19:00:00 14,3 7,3 6 4 16 9 WSW 1027,5 -
15.01.2020 18:00:00 15,4 7,1 10 5 19 10 SW 1027,2 0,0
15.01.2020 17:00:00 17,6 5,5 11 6 22 12 SSW 1026,9 0,0
15.01.2020 16:00:00 18,1 5,9 11 6 26 14 SSW 1026,5 0,0
15.01.2020 15:00:00 17,8 7,0 16 9 31 17 SW 1026,4 0,0
15.01.2020 14:00:00 17,6 6,7 14 8 29 16 SSW 1026,7 0,0
15.01.2020 13:00:00 17,0 6,8 14 7 30 16 S 1027,1 -
15.01.2020 12:00:00 15,9 7,8 13 7 27 14 S 1027,8 0,0
15.01.2020 11:00:00 14,8 8,5 11 6 23 12 S 1027,5 0,0
15.01.2020 10:00:00 13,5 8,8 11 6 22 12 S 1026,7 0,0
15.01.2020 09:00:00 11,8 8,7 11 6 21 11 S 1026,3 0,0
15.01.2020 08:00:00 11,2 8,8 10 5 16 9 SSE 1026,0 0,0
15.01.2020 07:00:00 11,2 9,2 6 4 13 7 SSE 1024,9 -
15.01.2020 06:00:00 11,5 9,4 8 4 13 7 S 1024,8 0,0
15.01.2020 05:00:00 11,6 9,2 6 4 10 5 S 1024,9 0,0
15.01.2020 04:00:00 11,3 8,7 5 3 9 5 SSE 1025,1 0,0
15.01.2020 03:00:00 11,0 8,3 3 1 7 4 SSE 1025,1 0,0
15.01.2020 02:00:00 11,5 8,7 5 3 7 4 E 1025,0 0,0
15.01.2020 01:00:00 11,3 8,7 2 1 5 3 ENE 1025,6 -
15.01.2020 00:00:00 12,0 8,7 2 1 4 2 ENE 1025,7 0,0
14.01.2020 23:00:00 12,5 8,8 0 0 5 3 E 1025,5 0,0
14.01.2020 22:00:00 12,9 8,5 2 1 6 3 WSW 1025,2 0,0
14.01.2020 21:00:00 13,0 8,1 4 2 5 3 SSW 1025,2 0,0
14.01.2020 20:00:00 12,9 7,6 4 2 9 5 W 1025,2 0,0
14.01.2020 19:00:00 13,0 8,3 8 4 12 7 W 1025,0 -
14.01.2020 18:00:00 14,3 9,3 7 4 18 10 SW 1024,5 0,0
14.01.2020 17:00:00 15,2 7,7 11 6 20 11 SW 1024,1 0,0
14.01.2020 16:00:00 16,0 6,4 11 6 19 10 SW 1023,7 0,0
14.01.2020 15:00:00 17,1 6,8 7 4 16 9 WSW 1023,6 0,0
14.01.2020 14:00:00 16,1 5,9 6 4 20 11 WSW 1024,3 0,0
14.01.2020 13:00:00 15,8 4,8 5 3 14 8 SW 1025,3 -
14.01.2020 12:00:00 14,3 5,1 6 4 10 6 WSW 1026,1 0,0
14.01.2020 11:00:00 12,9 8,1 1 0 4 2 WSW 1025,9 0,0
14.01.2020 10:00:00 11,4 7,7 1 1 5 3 WNW 1025,4 0,0
14.01.2020 09:00:00 10,9 8,0 1 1 4 2 NW 1024,8 0,0
14.01.2020 08:00:00 10,5 6,8 2 1 4 2 NNE 1024,7 0,0
14.01.2020 07:00:00 11,0 7,8 3 2 5 3 N 1024,2 -
14.01.2020 06:00:00 10,7 7,1 1 0 4 2 NNE 1023,9 0,0
14.01.2020 05:00:00 10,6 7,0 1 1 4 2 ENE 1024,0 0,0
14.01.2020 04:00:00 10,7 7,1 2 1 6 3 NE 1024,2 0,0
14.01.2020 03:00:00 11,1 7,8 4 2 5 3 NE 1024,5 0,0
14.01.2020 02:00:00 10,8 7,7 3 2 7 4 ENE 1024,8 0,0
14.01.2020 01:00:00 10,4 7,8 2 1 6 3 NE 1025,4 -
14.01.2020 00:00:00 10,2 7,6 4 2 6 4 NE 1025,5 0,0
13.01.2020 23:00:00 11,1 8,0 2 1 6 3 NNE 1025,5 0,0
13.01.2020 22:00:00 12,0 7,8 4 2 8 5 NE 1025,6 0,0
13.01.2020 21:00:00 12,3 8,0 4 2 7 4 E 1025,8 0,0
13.01.2020 20:00:00 12,7 8,9 6 3 11 6 SSE 1026,0 0,0
13.01.2020 19:00:00 13,1 8,8 6 4 13 7 S 1025,9 -
13.01.2020 18:00:00 14,5 8,7 8 4 16 9 S 1025,4 0,0
13.01.2020 17:00:00 16,8 8,3 8 5 15 8 S 1024,8 0,0
13.01.2020 16:00:00 16,6 7,6 3 1 7 4 E 1025,4 0,0
13.01.2020 15:00:00 16,6 7,6 0 0 11 6 NE 1025,5 0,0
13.01.2020 14:00:00 17,6 8,1 4 2 22 12 ESE 1026,1 0,0
13.01.2020 13:00:00 16,5 8,5 8 5 21 11 E 1026,9 -
13.01.2020 12:00:00 15,4 8,4 10 5 25 14 E 1027,7 0,0
13.01.2020 11:00:00 13,3 8,9 9 5 20 11 E 1027,7 0,0
13.01.2020 10:00:00 11,5 8,1 9 5 19 10 E 1027,5 0,0
13.01.2020 09:00:00 10,1 7,8 9 5 18 10 E 1027,4 0,0
13.01.2020 08:00:00 9,9 7,7 9 5 20 11 E 1027,1 0,0
13.01.2020 07:00:00 9,9 7,7 10 5 20 11 E 1026,8 -
13.01.2020 06:00:00 9,9 7,7 10 5 18 10 E 1027,0 0,0
13.01.2020 05:00:00 9,8 7,8 8 5 17 9 E 1027,4 0,0
13.01.2020 04:00:00 9,9 8,0 7 4 17 9 E 1027,8 0,0
13.01.2020 03:00:00 9,9 8,0 7 4 16 8 ENE 1028,1 0,0
13.01.2020 02:00:00 10,1 8,0 7 4 14 7 ENE 1028,6 0,0
13.01.2020 01:00:00 10,4 8,1 5 3 13 7 ENE 1029,4 -
13.01.2020 00:00:00 10,7 8,3 5 3 10 5 NE 1030,0 0,0
12.01.2020 23:00:00 10,9 8,0 3 2 9 5 NE 1029,6 0,0
12.01.2020 22:00:00 11,3 8,0 4 2 9 5 ENE 1029,5 0,0
12.01.2020 21:00:00 12,0 7,7 3 2 11 6 ENE 1029,5 0,0
12.01.2020 20:00:00 12,7 6,1 5 3 12 6 E 1029,4 0,0
12.01.2020 19:00:00 14,4 6,2 4 2 11 6 ENE 1028,7 -
12.01.2020 18:00:00 16,6 6,1 1 1 11 6 NE 1028,3 0,0
12.01.2020 17:00:00 17,6 6,1 5 3 14 8 ENE 1028,1 0,0
12.01.2020 16:00:00 17,9 5,8 5 3 19 10 ENE 1028,3 0,0
12.01.2020 15:00:00 17,5 6,4 8 4 19 10 E 1028,7 0,0
12.01.2020 14:00:00 17,0 7,6 5 3 19 10 NE 1029,6 0,0
12.01.2020 13:00:00 16,6 8,3 9 5 23 12 E 1030,4 -
12.01.2020 12:00:00 14,7 8,9 6 4 16 9 ENE 1031,4 0,0
12.01.2020 11:00:00 12,8 8,3 7 4 19 11 ENE 1031,8 0,0
12.01.2020 10:00:00 11,3 7,8 9 5 19 10 NE 1031,2 0,0
12.01.2020 09:00:00 10,0 7,3 6 4 18 10 ENE 1031,0 0,0
12.01.2020 08:00:00 9,9 7,3 8 4 18 10 ENE 1030,5 0,0
12.01.2020 07:00:00 10,3 7,4 8 4 20 11 ENE 1030,5 -
12.01.2020 06:00:00 10,3 7,4 8 4 22 12 ENE 1030,3 0,0
12.01.2020 05:00:00 10,6 7,3 10 6 21 11 ENE 1030,5 0,0
12.01.2020 04:00:00 10,8 7,3 9 5 21 11 ENE 1030,8 0,0
12.01.2020 03:00:00 10,8 7,3 10 5 23 12 ENE 1030,8 0,0
12.01.2020 02:00:00 11,1 7,4 10 5 27 14 E 1030,8 0,0
12.01.2020 01:00:00 11,3 7,3 11 6 25 14 E 1030,9 -
12.01.2020 00:00:00 11,2 7,3 13 7 27 15 ENE 1031,1 0,0

tt = Température de l'air
td = dewpoint
ff = Vitesse du vent
fx = gusts
dd = Direction du vent
ppp = reduced air pressure
rr = Quantités de précipitations

stations d'obs. à proximité